createdAt,value
2016-10-12T00:00:05.063Z,0
2016-10-12T00:01:05.399Z,0
2016-10-12T00:02:04.321Z,0
2016-10-12T00:03:05.137Z,0
2016-10-12T00:04:04.611Z,0
2016-10-12T00:05:04.276Z,0
2016-10-12T00:06:05.600Z,0
2016-10-12T00:07:04.533Z,0
2016-10-12T00:08:05.236Z,0
2016-10-12T00:09:04.476Z,0
2016-10-12T00:10:05.069Z,0
2016-10-12T00:11:05.687Z,0
2016-10-12T00:12:05.440Z,0
2016-10-12T00:13:04.873Z,0
2016-10-12T00:14:04.812Z,0
2016-10-12T00:15:04.569Z,0
2016-10-12T00:16:04.988Z,0
2016-10-12T00:17:05.868Z,0
2016-10-12T00:18:05.020Z,0
2016-10-12T00:19:05.149Z,0
2016-10-12T00:20:06.025Z,0
2016-10-12T00:21:05.191Z,0
2016-10-12T00:22:05.845Z,0
2016-10-12T00:23:06.158Z,0
2016-10-12T00:24:05.751Z,0
2016-10-12T00:25:05.344Z,0
2016-10-12T00:26:05.090Z,0
2016-10-12T00:27:05.017Z,0
2016-10-12T00:28:05.149Z,0
2016-10-12T00:29:05.074Z,0
2016-10-12T00:30:05.729Z,0
2016-10-12T00:31:04.668Z,0
2016-10-12T00:32:06.359Z,0
2016-10-12T00:33:05.478Z,0
2016-10-12T00:34:05.840Z,0
2016-10-12T00:35:05.857Z,0
2016-10-12T00:36:04.636Z,0
2016-10-12T00:37:06.028Z,0
2016-10-12T00:38:05.187Z,0
2016-10-12T00:39:04.740Z,0
2016-10-12T00:40:06.207Z,0
2016-10-12T00:41:05.685Z,0
2016-10-12T00:42:05.888Z,0
2016-10-12T00:43:04.973Z,0
2016-10-12T00:44:06.425Z,0
2016-10-12T00:45:06.408Z,0
2016-10-12T00:46:04.797Z,0
2016-10-12T00:47:05.515Z,0
2016-10-12T00:48:06.210Z,0
2016-10-12T00:49:06.258Z,0
2016-10-12T00:50:05.327Z,0
2016-10-12T00:51:04.884Z,0
2016-10-12T00:52:06.499Z,0
2016-10-12T00:53:05.812Z,0
2016-10-12T00:54:05.943Z,0
2016-10-12T00:55:05.586Z,0
2016-10-12T00:56:05.579Z,0
2016-10-12T00:57:06.377Z,0
2016-10-12T00:58:06.319Z,0
2016-10-12T00:59:05.731Z,0
2016-10-12T01:00:06.066Z,0
2016-10-12T01:01:05.391Z,0
2016-10-12T01:02:06.388Z,0
2016-10-12T01:03:06.371Z,0
2016-10-12T01:04:06.486Z,0
2016-10-12T01:05:05.888Z,0
2016-10-12T01:06:05.076Z,0
2016-10-12T01:07:06.242Z,0
2016-10-12T01:08:05.404Z,0
2016-10-12T01:09:05.641Z,0
2016-10-12T01:10:07.593Z,0
2016-10-12T01:11:05.621Z,0
2016-10-12T01:12:05.825Z,0
2016-10-12T01:13:06.461Z,0
2016-10-12T01:14:05.792Z,0
2016-10-12T01:15:06.251Z,0
2016-10-12T01:16:05.816Z,0
2016-10-12T01:17:06.420Z,0
2016-10-12T01:18:06.176Z,0
2016-10-12T01:19:05.953Z,0
2016-10-12T01:20:07.146Z,0
2016-10-12T01:21:06.554Z,0
2016-10-12T01:22:07.218Z,0
2016-10-12T01:23:06.156Z,0
2016-10-12T01:24:06.125Z,0
2016-10-12T01:25:06.359Z,0
2016-10-12T01:26:06.242Z,0
2016-10-12T01:27:06.241Z,0
2016-10-12T01:28:06.159Z,0
2016-10-12T01:29:06.772Z,0
2016-10-12T01:30:05.708Z,0
2016-10-12T01:31:07.091Z,0
2016-10-12T01:32:06.193Z,0
2016-10-12T01:33:06.881Z,0
2016-10-12T01:34:06.334Z,0
2016-10-12T01:35:06.355Z,0
2016-10-12T01:36:06.591Z,0
2016-10-12T01:37:05.828Z,0
2016-10-12T01:38:06.371Z,0
2016-10-12T01:39:07.069Z,0
2016-10-12T01:40:06.663Z,0
2016-10-12T01:41:07.374Z,0
2016-10-12T01:42:07.723Z,0
2016-10-12T01:43:06.651Z,0
2016-10-12T01:44:07.623Z,0
2016-10-12T01:45:06.859Z,0
2016-10-12T01:46:06.772Z,0
2016-10-12T01:47:07.708Z,0
2016-10-12T01:48:07.041Z,0
2016-10-12T01:49:07.246Z,0
2016-10-12T01:50:07.320Z,0
2016-10-12T01:51:07.285Z,0
2016-10-12T01:52:06.258Z,0
2016-10-12T01:53:06.982Z,0
2016-10-12T01:54:06.505Z,0
2016-10-12T01:55:07.348Z,0
2016-10-12T01:56:06.797Z,0
2016-10-12T01:57:07.032Z,0
2016-10-12T01:58:06.418Z,0
2016-10-12T01:59:06.998Z,0
2016-10-12T02:00:06.787Z,0
2016-10-12T02:01:07.656Z,0
2016-10-12T02:02:07.749Z,0
2016-10-12T02:03:07.805Z,0
2016-10-12T02:04:06.727Z,0
2016-10-12T02:05:06.906Z,0
2016-10-12T02:06:07.412Z,0
2016-10-12T02:07:06.187Z,0
2016-10-12T02:08:07.500Z,0
2016-10-12T02:09:07.357Z,0
2016-10-12T02:10:07.020Z,0
2016-10-12T02:11:08.412Z,0
2016-10-12T02:12:08.013Z,0
2016-10-12T02:13:06.882Z,0
2016-10-12T02:14:07.819Z,0
2016-10-12T02:15:07.054Z,0
2016-10-12T02:16:07.356Z,0
2016-10-12T02:17:07.627Z,0
2016-10-12T02:18:07.320Z,0
2016-10-12T02:19:06.962Z,0
2016-10-12T02:20:07.720Z,0
2016-10-12T02:21:06.731Z,0
2016-10-12T02:22:07.917Z,0
2016-10-12T02:23:06.705Z,0
2016-10-12T02:24:07.429Z,0
2016-10-12T02:25:06.968Z,0
2016-10-12T02:26:07.294Z,0
2016-10-12T02:27:07.761Z,0
2016-10-12T02:28:07.832Z,0
2016-10-12T02:29:07.045Z,0
2016-10-12T02:30:07.465Z,0
2016-10-12T02:31:07.310Z,0
2016-10-12T02:32:08.602Z,0
2016-10-12T02:33:07.392Z,0
2016-10-12T02:34:07.790Z,0
2016-10-12T02:35:06.718Z,0
2016-10-12T02:36:08.853Z,0
2016-10-12T02:37:07.557Z,0
2016-10-12T02:38:08.459Z,0
2016-10-12T02:39:07.547Z,0
2016-10-12T02:40:07.291Z,0
2016-10-12T02:41:07.743Z,0
2016-10-12T02:42:07.691Z,0
2016-10-12T02:43:08.261Z,0
2016-10-12T02:44:07.525Z,0
2016-10-12T02:45:07.364Z,0
2016-10-12T02:46:07.477Z,0
2016-10-12T02:47:07.208Z,0
2016-10-12T02:48:08.232Z,0
2016-10-12T02:49:09.093Z,0
2016-10-12T02:50:08.318Z,0
2016-10-12T02:51:08.245Z,0
2016-10-12T02:52:08.781Z,0
2016-10-12T02:53:08.470Z,0
2016-10-12T02:54:08.286Z,0
2016-10-12T02:55:07.206Z,0
2016-10-12T02:56:07.711Z,0
2016-10-12T02:57:08.284Z,0
2016-10-12T02:58:07.148Z,0
2016-10-12T02:59:07.884Z,0
2016-10-12T03:00:08.040Z,0
2016-10-12T03:01:07.420Z,0
2016-10-12T03:02:07.814Z,0
2016-10-12T03:03:07.598Z,0
2016-10-12T03:04:07.469Z,0
2016-10-12T03:05:07.200Z,0
2016-10-12T03:06:08.340Z,0
2016-10-12T03:07:08.812Z,0
2016-10-12T03:08:09.029Z,0
2016-10-12T03:09:08.260Z,0
2016-10-12T03:10:07.993Z,0
2016-10-12T03:11:08.561Z,0
2016-10-12T03:12:07.952Z,0
2016-10-12T03:13:07.659Z,0
2016-10-12T03:14:08.091Z,0
2016-10-12T03:15:07.962Z,0
2016-10-12T03:16:08.076Z,0
2016-10-12T03:17:08.364Z,0
2016-10-12T03:18:08.032Z,0
2016-10-12T03:19:08.058Z,0
2016-10-12T03:20:08.512Z,0
2016-10-12T03:21:08.907Z,0
2016-10-12T03:22:08.121Z,0
2016-10-12T03:23:07.611Z,0
2016-10-12T03:24:08.697Z,0
2016-10-12T03:25:08.323Z,0
2016-10-12T03:26:07.827Z,0
2016-10-12T03:27:07.614Z,0
2016-10-12T03:28:08.639Z,0
2016-10-12T03:29:09.019Z,0
2016-10-12T03:30:08.920Z,0
2016-10-12T03:31:08.562Z,0
2016-10-12T03:32:07.793Z,0
2016-10-12T03:33:08.912Z,0
2016-10-12T03:34:09.050Z,0
2016-10-12T03:35:09.050Z,0
2016-10-12T03:36:08.748Z,0
2016-10-12T03:37:10.246Z,0
2016-10-12T03:38:08.382Z,0
2016-10-12T03:39:09.190Z,0
2016-10-12T03:40:08.160Z,0
2016-10-12T03:41:09.895Z,0
2016-10-12T03:42:08.263Z,0
2016-10-12T03:43:08.468Z,0
2016-10-12T03:44:08.657Z,0
2016-10-12T03:45:08.608Z,0
2016-10-12T03:46:08.498Z,0
2016-10-12T03:47:08.725Z,0
2016-10-12T03:48:09.004Z,0
2016-10-12T03:49:09.708Z,0
2016-10-12T03:50:08.598Z,0
2016-10-12T03:51:08.679Z,0
2016-10-12T03:52:09.041Z,0
2016-10-12T03:53:08.872Z,0
2016-10-12T03:54:08.889Z,0
2016-10-12T03:55:08.499Z,0
2016-10-12T03:56:08.565Z,0
2016-10-12T03:57:08.369Z,0
2016-10-12T03:58:09.413Z,0
2016-10-12T03:59:09.234Z,0
2016-10-12T04:00:09.193Z,0
2016-10-12T04:01:08.891Z,0
2016-10-12T04:02:07.721Z,0
2016-10-12T04:03:09.620Z,0
2016-10-12T04:04:08.640Z,0
2016-10-12T04:05:09.367Z,0
2016-10-12T04:06:09.146Z,0
2016-10-12T04:07:09.556Z,0
2016-10-12T04:08:09.525Z,0
2016-10-12T04:09:09.623Z,0
2016-10-12T04:10:08.140Z,0
2016-10-12T04:11:08.979Z,0
2016-10-12T04:12:09.879Z,0
2016-10-12T04:13:08.899Z,0
2016-10-12T04:14:09.728Z,0
2016-10-12T04:15:09.066Z,0
2016-10-12T04:16:08.153Z,0
2016-10-12T04:17:10.097Z,0
2016-10-12T04:18:09.264Z,0
2016-10-12T04:19:09.121Z,0
2016-10-12T04:20:09.301Z,0
2016-10-12T04:21:09.002Z,0
2016-10-12T04:22:09.263Z,0
2016-10-12T04:23:09.831Z,0
2016-10-12T04:24:09.769Z,0
2016-10-12T04:25:08.794Z,0
2016-10-12T04:26:10.410Z,0
2016-10-12T04:27:09.277Z,0
2016-10-12T04:28:08.976Z,0
2016-10-12T04:29:09.888Z,0
2016-10-12T04:30:09.733Z,0
2016-10-12T04:31:09.874Z,0
2016-10-12T04:32:10.151Z,0
2016-10-12T04:33:09.462Z,0
2016-10-12T04:34:09.607Z,0
2016-10-12T04:35:09.477Z,0
2016-10-12T04:36:09.961Z,0
2016-10-12T04:37:09.613Z,0
2016-10-12T04:38:09.868Z,0
2016-10-12T04:39:09.619Z,0
2016-10-12T04:40:09.445Z,0
2016-10-12T04:41:09.175Z,0
2016-10-12T04:42:09.468Z,0
2016-10-12T04:43:09.541Z,0
2016-10-12T04:44:09.559Z,0
2016-10-12T04:45:10.361Z,0
2016-10-12T04:46:10.491Z,0
2016-10-12T04:47:10.805Z,0
2016-10-12T04:48:09.589Z,0
2016-10-12T04:49:09.240Z,0
2016-10-12T04:50:09.643Z,0
2016-10-12T04:51:10.135Z,0
2016-10-12T04:52:10.423Z,0
2016-10-12T04:53:09.381Z,0
2016-10-12T04:54:10.164Z,0
2016-10-12T04:55:10.441Z,0
2016-10-12T04:56:10.431Z,0
2016-10-12T04:57:09.958Z,0
2016-10-12T04:58:10.228Z,0
2016-10-12T04:59:09.171Z,0
2016-10-12T05:00:09.809Z,0
2016-10-12T05:01:10.513Z,0
2016-10-12T05:02:09.499Z,0
2016-10-12T05:03:10.211Z,0
2016-10-12T05:04:08.722Z,0
2016-10-12T05:05:19.397Z,0
2016-10-12T05:06:11.100Z,0
2016-10-12T05:07:11.410Z,0
2016-10-12T05:08:09.451Z,0
2016-10-12T05:09:10.115Z,0
2016-10-12T05:10:11.441Z,0
2016-10-12T05:11:10.702Z,0
2016-10-12T05:12:10.241Z,0
2016-10-12T05:13:10.673Z,0
2016-10-12T05:14:10.164Z,0
2016-10-12T05:15:11.061Z,0
2016-10-12T05:16:11.498Z,0
2016-10-12T05:17:10.059Z,0
2016-10-12T05:18:09.846Z,0
2016-10-12T05:19:10.484Z,0
2016-10-12T05:20:09.894Z,0
2016-10-12T05:21:09.619Z,0
2016-10-12T05:22:09.772Z,0
2016-10-12T05:23:09.161Z,0
2016-10-12T05:24:09.293Z,0
2016-10-12T05:25:10.134Z,0
2016-10-12T05:26:10.190Z,0
2016-10-12T05:27:10.510Z,0
2016-10-12T05:28:10.745Z,0
2016-10-12T05:29:10.724Z,0
2016-10-12T05:30:10.208Z,0
2016-10-12T05:31:11.133Z,0
2016-10-12T05:32:10.528Z,0
2016-10-12T05:33:11.242Z,0
2016-10-12T05:34:10.907Z,0
2016-10-12T05:35:10.209Z,0
2016-10-12T05:36:10.360Z,0
2016-10-12T05:37:10.417Z,5
2016-10-12T05:38:09.468Z,5
2016-10-12T05:39:10.770Z,5
2016-10-12T05:40:11.368Z,5
2016-10-12T05:41:10.613Z,5
2016-10-12T05:42:10.129Z,5
2016-10-12T05:43:10.380Z,5
2016-10-12T05:44:10.566Z,10
2016-10-12T05:45:10.958Z,10
2016-10-12T05:46:10.980Z,10
2016-10-12T05:47:10.466Z,10
2016-10-12T05:48:10.331Z,10
2016-10-12T05:49:11.132Z,15
2016-10-12T05:50:12.523Z,15
2016-10-12T05:51:10.079Z,15
2016-10-12T05:52:10.575Z,15
2016-10-12T05:53:11.414Z,15
2016-10-12T05:54:10.565Z,15
2016-10-12T05:55:11.498Z,15
2016-10-12T05:56:10.731Z,20
2016-10-12T05:57:11.344Z,20
2016-10-12T05:58:10.430Z,20
2016-10-12T05:59:10.696Z,20
2016-10-12T06:00:11.321Z,20
2016-10-12T06:01:10.286Z,20
2016-10-12T06:02:11.379Z,20
2016-10-12T06:03:10.893Z,25
2016-10-12T06:04:10.606Z,25
2016-10-12T06:05:10.369Z,25
2016-10-12T06:06:11.627Z,25
2016-10-12T06:07:11.319Z,25
2016-10-12T06:08:11.361Z,30
2016-10-12T06:09:11.709Z,30
2016-10-12T06:10:11.058Z,35
2016-10-12T06:11:11.596Z,40
2016-10-12T06:12:12.229Z,45
2016-10-12T06:13:11.100Z,45
2016-10-12T06:14:11.241Z,40
2016-10-12T06:15:11.396Z,40
2016-10-12T06:16:10.353Z,45
2016-10-12T06:17:11.203Z,50
2016-10-12T06:18:10.622Z,50
2016-10-12T06:19:12.059Z,55
2016-10-12T06:20:10.849Z,55
2016-10-12T06:21:10.331Z,55
2016-10-12T06:22:11.546Z,55
2016-10-12T06:23:10.379Z,55
2016-10-12T06:24:10.469Z,50
2016-10-12T06:25:11.550Z,45
2016-10-12T06:26:11.507Z,50
2016-10-12T06:27:10.903Z,60
2016-10-12T06:28:11.348Z,60
2016-10-12T06:29:11.733Z,60
2016-10-12T06:30:11.022Z,55
2016-10-12T06:31:11.230Z,50
2016-10-12T06:32:11.832Z,50
2016-10-12T06:33:11.635Z,40
2016-10-12T06:34:13.143Z,40
2016-10-12T06:35:12.523Z,40
2016-10-12T06:36:11.898Z,45
2016-10-12T06:37:11.639Z,50
2016-10-12T06:38:10.581Z,50
2016-10-12T06:39:12.027Z,50
2016-10-12T06:40:11.038Z,55
2016-10-12T06:41:11.350Z,55
2016-10-12T06:42:10.596Z,50
2016-10-12T06:44:10.147Z,65
2016-10-12T06:45:11.149Z,65
2016-10-12T06:46:10.844Z,70
2016-10-12T06:47:11.938Z,75
2016-10-12T06:48:11.101Z,80
2016-10-12T06:49:11.227Z,85
2016-10-12T06:50:12.007Z,90
2016-10-12T06:51:11.510Z,95
2016-10-12T06:52:11.653Z,95
2016-10-12T06:53:12.078Z,100
2016-10-12T06:54:11.824Z,105
2016-10-12T06:55:11.549Z,100
2016-10-12T06:56:11.915Z,100
2016-10-12T06:57:12.695Z,100
2016-10-12T06:58:12.210Z,100
2016-10-12T06:59:12.324Z,100
2016-10-12T07:00:12.072Z,95
2016-10-12T07:01:13.375Z,95
2016-10-12T07:02:11.668Z,95
2016-10-12T07:03:11.279Z,100
2016-10-12T07:04:11.230Z,100
2016-10-12T07:05:12.596Z,105
2016-10-12T07:06:11.682Z,110
2016-10-12T07:07:12.503Z,115
2016-10-12T07:08:11.744Z,120
2016-10-12T07:09:11.658Z,120
2016-10-12T07:10:11.803Z,125
2016-10-12T07:11:12.172Z,130
2016-10-12T07:12:12.083Z,140
2016-10-12T07:13:12.169Z,150
2016-10-12T07:14:12.584Z,160
2016-10-12T07:15:12.313Z,170
2016-10-12T07:16:12.013Z,175
2016-10-12T07:17:11.827Z,190
2016-10-12T07:18:12.387Z,205
2016-10-12T07:19:12.557Z,215
2016-10-12T07:20:11.879Z,225
2016-10-12T07:21:12.444Z,235
2016-10-12T07:22:11.849Z,230
2016-10-12T07:23:11.766Z,225
2016-10-12T07:24:12.264Z,225
2016-10-12T07:25:12.643Z,235
2016-10-12T07:26:12.022Z,245
2016-10-12T07:27:12.043Z,250
2016-10-12T07:28:12.445Z,250
2016-10-12T07:29:13.459Z,250
2016-10-12T07:30:12.234Z,240
2016-10-12T07:31:12.444Z,230
2016-10-12T07:32:13.023Z,220
2016-10-12T07:33:11.813Z,220
2016-10-12T07:34:12.452Z,225
2016-10-12T07:35:12.387Z,225
2016-10-12T07:36:12.213Z,230
2016-10-12T07:37:13.834Z,240
2016-10-12T07:38:11.745Z,250
2016-10-12T07:39:11.775Z,260
2016-10-12T07:40:13.514Z,280
2016-10-12T07:41:12.904Z,295
2016-10-12T07:42:13.089Z,300
2016-10-12T07:43:12.487Z,290
2016-10-12T07:44:12.390Z,280
2016-10-12T07:45:12.693Z,260
2016-10-12T07:46:13.371Z,250
2016-10-12T07:47:13.433Z,250
2016-10-12T07:48:12.415Z,265
2016-10-12T07:49:13.203Z,275
2016-10-12T07:50:12.965Z,290
2016-10-12T07:51:12.393Z,300
2016-10-12T07:52:12.655Z,310
2016-10-12T07:53:13.261Z,315
2016-10-12T07:54:13.315Z,310
2016-10-12T07:55:13.975Z,300
2016-10-12T07:56:12.957Z,295
2016-10-12T07:57:13.570Z,280
2016-10-12T07:58:13.549Z,270
2016-10-12T07:59:12.763Z,260
2016-10-12T08:00:12.285Z,250
2016-10-12T08:01:14.418Z,240
2016-10-12T08:02:14.654Z,235
2016-10-12T08:03:13.404Z,230
2016-10-12T08:04:12.312Z,240
2016-10-12T08:05:14.034Z,245
2016-10-12T08:06:14.691Z,265
2016-10-12T08:07:13.763Z,280
2016-10-12T08:08:13.874Z,290
2016-10-12T08:09:12.471Z,295
2016-10-12T08:10:12.300Z,295
2016-10-12T08:11:15.142Z,295
2016-10-12T08:12:12.631Z,295
2016-10-12T08:13:13.903Z,290
2016-10-12T08:14:13.148Z,300
2016-10-12T08:15:13.184Z,310
2016-10-12T08:16:13.204Z,330
2016-10-12T08:17:12.452Z,360
2016-10-12T08:18:12.859Z,380
2016-10-12T08:19:12.957Z,390
2016-10-12T08:20:12.913Z,400
2016-10-12T08:21:14.853Z,400
2016-10-12T08:22:13.670Z,395
2016-10-12T08:23:13.783Z,390
2016-10-12T08:24:13.627Z,390
2016-10-12T08:25:13.397Z,390
2016-10-12T08:26:13.234Z,395
2016-10-12T08:27:14.232Z,410
2016-10-12T08:28:13.146Z,430
2016-10-12T08:29:13.227Z,445
2016-10-12T08:30:13.193Z,450
2016-10-12T08:31:13.189Z,460
2016-10-12T08:32:12.719Z,455
2016-10-12T08:33:13.790Z,455
2016-10-12T08:34:13.269Z,455
2016-10-12T08:35:13.577Z,445
2016-10-12T08:36:13.887Z,435
2016-10-12T08:37:13.689Z,420
2016-10-12T08:38:14.548Z,405
2016-10-12T08:39:13.862Z,390
2016-10-12T08:40:13.452Z,385
2016-10-12T08:41:13.467Z,375
2016-10-12T08:42:13.406Z,380
2016-10-12T08:43:13.712Z,385
2016-10-12T08:44:13.577Z,390
2016-10-12T08:45:14.404Z,405
2016-10-12T08:46:14.446Z,410
2016-10-12T08:47:14.169Z,420
2016-10-12T08:48:13.525Z,410
2016-10-12T08:49:13.309Z,410
2016-10-12T08:50:14.135Z,400
2016-10-12T08:51:13.539Z,395
2016-10-12T08:52:13.996Z,390
2016-10-12T08:53:13.704Z,385
2016-10-12T08:54:13.724Z,365
2016-10-12T08:55:13.815Z,350
2016-10-12T08:56:13.566Z,330
2016-10-12T08:57:13.154Z,320
2016-10-12T08:58:15.412Z,315
2016-10-12T08:59:13.699Z,305
2016-10-12T09:00:13.631Z,310
2016-10-12T09:01:13.460Z,315
2016-10-12T09:02:13.792Z,315
2016-10-12T09:03:13.620Z,300
2016-10-12T09:04:14.140Z,295
2016-10-12T09:05:14.564Z,300
2016-10-12T09:06:13.622Z,305
2016-10-12T09:07:13.520Z,300
2016-10-12T09:08:13.616Z,295
2016-10-12T09:09:13.621Z,290
2016-10-12T09:10:12.788Z,290
2016-10-12T09:11:13.171Z,300
2016-10-12T09:12:14.025Z,300
2016-10-12T09:13:14.799Z,300
2016-10-12T09:14:14.380Z,300
2016-10-12T09:15:13.504Z,295
2016-10-12T09:16:13.137Z,290
2016-10-12T09:17:13.826Z,300
2016-10-12T09:18:14.076Z,320
2016-10-12T09:19:14.006Z,350
2016-10-12T09:20:13.664Z,390
2016-10-12T09:21:15.626Z,445
2016-10-12T09:22:14.224Z,505
2016-10-12T09:23:15.063Z,545
2016-10-12T09:24:13.432Z,570
2016-10-12T09:25:14.762Z,570
2016-10-12T09:26:14.966Z,545
2016-10-12T09:27:13.728Z,515
2016-10-12T09:28:14.905Z,490
2016-10-12T09:29:15.005Z,485
2016-10-12T09:30:13.621Z,490
2016-10-12T09:31:13.520Z,480
2016-10-12T09:32:13.971Z,455
2016-10-12T09:33:13.527Z,425
2016-10-12T09:34:13.507Z,400
2016-10-12T09:35:13.670Z,390
2016-10-12T09:36:15.366Z,400
2016-10-12T09:37:14.911Z,410
2016-10-12T09:38:14.653Z,420
2016-10-12T09:39:13.891Z,425
2016-10-12T09:40:15.845Z,460
2016-10-12T09:41:14.879Z,500
2016-10-12T09:42:15.806Z,525
2016-10-12T09:43:15.043Z,530
2016-10-12T09:44:14.970Z,570
2016-10-12T09:45:14.801Z,600
2016-10-12T09:46:14.801Z,640
2016-10-12T09:47:14.569Z,675
2016-10-12T09:48:15.729Z,715
2016-10-12T09:49:13.410Z,760
2016-10-12T09:50:15.010Z,760
2016-10-12T09:51:15.062Z,715
2016-10-12T09:52:15.884Z,645
2016-10-12T09:53:15.473Z,585
2016-10-12T09:54:14.711Z,540
2016-10-12T09:55:15.108Z,565
2016-10-12T09:56:14.952Z,615
2016-10-12T09:57:16.028Z,640
2016-10-12T09:58:14.979Z,645
2016-10-12T09:59:15.441Z,635
2016-10-12T10:00:14.488Z,615
2016-10-12T10:01:15.363Z,595
2016-10-12T10:02:15.314Z,570
2016-10-12T10:03:15.641Z,555
2016-10-12T10:04:14.655Z,550
2016-10-12T10:05:15.326Z,545
2016-10-12T10:06:15.556Z,580
2016-10-12T10:07:15.309Z,640
2016-10-12T10:08:15.450Z,685
2016-10-12T10:09:15.597Z,670
2016-10-12T10:10:15.245Z,625
2016-10-12T10:11:14.501Z,600
2016-10-12T10:12:18.306Z,615
2016-10-12T10:13:15.796Z,675
2016-10-12T10:14:15.547Z,700
2016-10-12T10:15:15.728Z,720
2016-10-12T10:16:15.915Z,755
2016-10-12T10:17:15.468Z,785
2016-10-12T10:18:15.990Z,775
2016-10-12T10:19:15.734Z,735
2016-10-12T10:20:15.361Z,655
2016-10-12T10:21:16.180Z,565
2016-10-12T10:22:15.358Z,495
2016-10-12T10:23:15.724Z,465
2016-10-12T10:24:15.540Z,415
2016-10-12T10:25:15.525Z,360
2016-10-12T10:26:14.317Z,310
2016-10-12T10:27:16.664Z,295
2016-10-12T10:28:15.558Z,285
2016-10-12T10:29:15.733Z,285
2016-10-12T10:30:15.476Z,300
2016-10-12T10:31:15.721Z,355
2016-10-12T10:32:15.647Z,400
2016-10-12T10:33:15.296Z,435
2016-10-12T10:34:15.690Z,450
2016-10-12T10:35:15.840Z,480
2016-10-12T10:36:15.698Z,510
2016-10-12T10:37:15.238Z,545
2016-10-12T10:38:16.067Z,570
2016-10-12T10:39:15.768Z,605
2016-10-12T10:40:16.668Z,645
2016-10-12T10:41:15.537Z,650
2016-10-12T10:42:15.758Z,625
2016-10-12T10:43:15.714Z,585
2016-10-12T10:44:16.555Z,535
2016-10-12T10:45:16.240Z,525
2016-10-12T10:46:15.740Z,545
2016-10-12T10:47:16.477Z,570
2016-10-12T10:48:15.739Z,585
2016-10-12T10:49:15.870Z,580
2016-10-12T10:50:16.377Z,550
2016-10-12T10:51:16.322Z,515
2016-10-12T10:52:15.804Z,480
2016-10-12T10:53:16.023Z,470
2016-10-12T10:54:16.187Z,500
2016-10-12T10:55:15.903Z,540
2016-10-12T10:56:15.783Z,560
2016-10-12T10:57:15.657Z,570
2016-10-12T10:58:16.548Z,565
2016-10-12T10:59:15.353Z,560
2016-10-12T11:00:15.525Z,560
2016-10-12T11:01:16.053Z,555
2016-10-12T11:02:15.293Z,530
2016-10-12T11:03:15.428Z,495
2016-10-12T11:04:16.491Z,475
2016-10-12T11:05:16.996Z,490
2016-10-12T11:06:16.764Z,530
2016-10-12T11:07:16.346Z,555
2016-10-12T11:08:16.623Z,570
2016-10-12T11:09:15.431Z,575
2016-10-12T11:10:16.512Z,570
2016-10-12T11:11:16.414Z,565
2016-10-12T11:12:15.908Z,565
2016-10-12T11:13:16.609Z,570
2016-10-12T11:14:15.573Z,565
2016-10-12T11:15:16.176Z,550
2016-10-12T11:16:16.008Z,550
2016-10-12T11:17:17.112Z,585
2016-10-12T11:18:15.584Z,620
2016-10-12T11:19:15.804Z,630
2016-10-12T11:20:17.647Z,620
2016-10-12T11:21:16.547Z,615
2016-10-12T11:22:16.275Z,620
2016-10-12T11:23:16.010Z,635
2016-10-12T11:24:16.603Z,660
2016-10-12T11:25:16.337Z,685
2016-10-12T11:26:15.880Z,725
2016-10-12T11:27:16.148Z,745
2016-10-12T11:28:16.034Z,760
2016-10-12T11:29:16.200Z,770
2016-10-12T11:30:15.903Z,780
2016-10-12T11:31:16.241Z,790
2016-10-12T11:32:16.119Z,805
2016-10-12T11:33:17.589Z,815
2016-10-12T11:34:16.889Z,825
2016-10-12T11:35:16.584Z,835
2016-10-12T11:36:16.632Z,850
2016-10-12T11:37:16.412Z,860
2016-10-12T11:38:16.625Z,860
2016-10-12T11:39:16.444Z,860
2016-10-12T11:40:17.839Z,850
2016-10-12T11:41:16.202Z,840
2016-10-12T11:42:16.447Z,815
2016-10-12T11:43:17.315Z,790
2016-10-12T11:44:17.558Z,760
2016-10-12T11:45:17.188Z,740
2016-10-12T11:46:16.965Z,720
2016-10-12T11:47:16.507Z,710
2016-10-12T11:48:16.662Z,705
2016-10-12T11:49:17.872Z,695
2016-10-12T11:50:16.025Z,685
2016-10-12T11:51:18.206Z,660
2016-10-12T11:52:16.864Z,635
2016-10-12T11:53:17.053Z,610
2016-10-12T11:54:17.669Z,590
2016-10-12T11:55:18.592Z,590
2016-10-12T11:56:16.231Z,595
2016-10-12T11:57:16.493Z,605
2016-10-12T11:58:19.256Z,615
2016-10-12T11:59:17.592Z,640
2016-10-12T12:00:16.924Z,665
2016-10-12T12:01:18.120Z,675
2016-10-12T12:02:16.670Z,670
2016-10-12T12:03:17.734Z,650
2016-10-12T12:04:17.648Z,630
2016-10-12T12:05:17.527Z,610
2016-10-12T12:06:16.868Z,605
2016-10-12T12:07:18.511Z,610
2016-10-12T12:08:17.924Z,635
2016-10-12T12:09:17.583Z,660
2016-10-12T12:10:16.555Z,680
2016-10-12T12:11:17.640Z,685
2016-10-12T12:12:17.388Z,695
2016-10-12T12:13:16.877Z,685
2016-10-12T12:14:16.851Z,665
2016-10-12T12:15:16.892Z,630
2016-10-12T12:16:17.746Z,600
2016-10-12T12:17:17.017Z,580
2016-10-12T12:18:18.435Z,565
2016-10-12T12:19:16.839Z,555
2016-10-12T12:20:18.354Z,545
2016-10-12T12:21:18.191Z,545
2016-10-12T12:22:17.946Z,555
2016-10-12T12:23:17.402Z,560
2016-10-12T12:24:17.442Z,575
2016-10-12T12:25:17.933Z,580
2016-10-12T12:26:18.252Z,585
2016-10-12T12:27:19.127Z,600
2016-10-12T12:28:16.884Z,615
2016-10-12T12:29:18.098Z,625
2016-10-12T12:30:18.318Z,630
2016-10-12T12:31:17.660Z,615
2016-10-12T12:32:18.365Z,580
2016-10-12T12:33:18.568Z,545
2016-10-12T12:34:17.820Z,520
2016-10-12T12:35:18.593Z,495
2016-10-12T12:36:18.339Z,490
2016-10-12T12:37:18.128Z,495
2016-10-12T12:38:17.203Z,495
2016-10-12T12:39:18.054Z,495
2016-10-12T12:40:17.800Z,500
2016-10-12T12:41:17.055Z,510
2016-10-12T12:42:18.673Z,505
2016-10-12T12:43:18.141Z,505
2016-10-12T12:44:18.151Z,510
2016-10-12T12:45:17.241Z,510
2016-10-12T12:46:18.580Z,510
2016-10-12T12:47:18.407Z,505
2016-10-12T12:48:18.161Z,495
2016-10-12T12:49:17.765Z,485
2016-10-12T12:50:18.021Z,475
2016-10-12T12:51:17.648Z,470
2016-10-12T12:52:18.461Z,475
2016-10-12T12:53:18.529Z,480
2016-10-12T12:54:18.577Z,500
2016-10-12T12:55:18.640Z,510
2016-10-12T12:56:18.462Z,520
2016-10-12T12:57:19.669Z,540
2016-10-12T12:58:18.497Z,555
2016-10-12T12:59:18.929Z,570
2016-10-12T13:00:18.875Z,575
2016-10-12T13:01:18.579Z,565
2016-10-12T13:02:18.308Z,550
2016-10-12T13:03:17.780Z,530
2016-10-12T13:04:19.546Z,515
2016-10-12T13:05:18.275Z,510
2016-10-12T13:06:18.280Z,490
2016-10-12T13:07:18.088Z,465
2016-10-12T13:08:18.252Z,450
2016-10-12T13:09:18.324Z,445
2016-10-12T13:10:18.151Z,455
2016-10-12T13:11:18.385Z,470
2016-10-12T13:12:18.725Z,480
2016-10-12T13:13:18.301Z,495
2016-10-12T13:14:18.805Z,505
2016-10-12T13:15:18.476Z,510
2016-10-12T13:16:19.736Z,510
2016-10-12T13:17:19.398Z,505
2016-10-12T13:18:18.107Z,480
2016-10-12T13:19:18.771Z,440
2016-10-12T13:20:19.893Z,410
2016-10-12T13:21:18.050Z,380
2016-10-12T13:22:18.259Z,365
2016-10-12T13:23:18.543Z,365
2016-10-12T13:24:18.238Z,360
2016-10-12T13:25:18.824Z,350
2016-10-12T13:26:18.548Z,340
2016-10-12T13:27:18.101Z,320
2016-10-12T13:28:18.844Z,300
2016-10-12T13:29:18.581Z,280
2016-10-12T13:30:17.981Z,265
2016-10-12T13:31:19.780Z,255
2016-10-12T13:32:18.447Z,250
2016-10-12T13:33:19.611Z,255
2016-10-12T13:34:19.030Z,260
2016-10-12T13:35:19.158Z,270
2016-10-12T13:36:19.963Z,275
2016-10-12T13:37:18.507Z,280
2016-10-12T13:38:19.179Z,280
2016-10-12T13:39:19.159Z,280
2016-10-12T13:40:17.952Z,280
2016-10-12T13:41:20.728Z,275
2016-10-12T13:42:18.839Z,275
2016-10-12T13:43:18.969Z,275
2016-10-12T13:44:19.679Z,270
2016-10-12T13:45:18.736Z,260
2016-10-12T13:46:18.698Z,240
2016-10-12T13:47:19.449Z,230
2016-10-12T13:48:19.499Z,215
2016-10-12T13:49:20.056Z,205
2016-10-12T13:50:20.043Z,200
2016-10-12T13:51:18.690Z,195
2016-10-12T13:52:19.056Z,195
2016-10-12T13:53:18.689Z,195
2016-10-12T13:54:19.446Z,190
2016-10-12T13:55:18.653Z,190
2016-10-12T13:56:19.161Z,195
2016-10-12T13:57:19.717Z,210
2016-10-12T13:58:20.605Z,225
2016-10-12T13:59:18.810Z,245
2016-10-12T14:00:18.900Z,265
2016-10-12T14:01:19.856Z,280
2016-10-12T14:02:19.526Z,295
2016-10-12T14:03:19.880Z,310
2016-10-12T14:04:18.981Z,320
2016-10-12T14:05:20.192Z,330
2016-10-12T14:06:18.818Z,330
2016-10-12T14:07:19.370Z,320
2016-10-12T14:08:21.824Z,300
2016-10-12T14:09:19.774Z,265
2016-10-12T14:10:21.386Z,240
2016-10-12T14:11:19.861Z,220
2016-10-12T14:12:20.182Z,205
2016-10-12T14:13:20.535Z,195